Time,TemperatureF,DewpointF,PressureIn,WindDirection,WindDirectionDegrees,WindSpeedMPH,WindSpeedGustMPH,Humidity,HourlyPrecipIn,Conditions,Clouds,dailyrainin,SoftwareType,DateUTC
2013-05-03 00:00:00,37.4,22.3,30.63,SSW,193,0.0,12.0,54,0.00,,,0.00,Wunderground v.1.15,2013-05-03 06:00:00,
2013-05-03 00:06:00,37.0,21.9,30.63,SSW,193,0.0,12.0,54,0.00,,,0.00,Wunderground v.1.15,2013-05-03 06:06:00,
2013-05-03 00:12:00,37.1,22.0,30.63,SSW,193,1.0,2.0,54,0.00,,,0.00,Wunderground v.1.15,2013-05-03 06:12:00,
2013-05-03 00:18:00,38.2,22.1,30.62,SSW,195,1.0,12.0,52,0.00,,,0.00,Wunderground v.1.15,2013-05-03 06:18:00,
2013-05-03 00:24:00,38.1,22.0,30.62,SSW,195,2.0,12.0,52,0.00,,,0.00,Wunderground v.1.15,2013-05-03 06:24:00,
2013-05-03 00:30:00,38.3,21.7,30.62,SSW,195,2.0,2.0,51,0.00,,,0.00,Wunderground v.1.15,2013-05-03 06:30:00,
2013-05-03 00:36:00,38.4,22.3,30.62,South,188,3.0,12.0,52,0.00,,,0.00,Wunderground v.1.15,2013-05-03 06:36:00,
2013-05-03 00:42:00,38.6,22.0,30.61,South,191,4.0,12.0,51,0.00,,,0.00,Wunderground v.1.15,2013-05-03 06:42:00,
2013-05-03 00:48:00,37.7,22.1,30.61,South,191,4.0,12.0,53,0.00,,,0.00,Wunderground v.1.15,2013-05-03 06:48:00,
2013-05-03 00:54:00,36.8,21.7,30.61,South,191,3.0,12.0,54,0.00,,,0.00,Wunderground v.1.15,2013-05-03 06:54:00,
2013-05-03 01:00:00,36.7,22.0,30.61,SSW,194,3.0,3.0,55,0.00,,,0.00,Wunderground v.1.15,2013-05-03 07:00:00,
2013-05-03 01:06:00,37.1,22.0,30.60,SSW,197,2.0,12.0,54,0.00,,,0.00,Wunderground v.1.15,2013-05-03 07:06:00,
2013-05-03 01:12:00,37.8,22.2,30.60,SSW,213,3.0,12.0,53,0.00,,,0.00,Wunderground v.1.15,2013-05-03 07:12:00,
2013-05-03 01:18:00,37.9,21.8,30.60,SW,214,3.0,12.0,52,0.00,,,0.00,Wunderground v.1.15,2013-05-03 07:18:00,
2013-05-03 01:24:00,38.2,21.6,30.60,SW,216,2.0,12.0,51,0.00,,,0.00,Wunderground v.1.15,2013-05-03 07:24:00,
2013-05-03 01:30:00,38.4,21.8,30.59,SSW,212,1.0,1.0,51,0.00,,,0.00,Wunderground v.1.15,2013-05-03 07:30:00,
2013-05-03 01:36:00,38.5,21.9,30.59,SSW,213,1.0,12.0,51,0.00,,,0.00,Wunderground v.1.15,2013-05-03 07:36:00,
2013-05-03 01:42:00,39.2,21.1,30.59,WSW,238,2.0,12.0,48,0.00,,,0.00,Wunderground v.1.15,2013-05-03 07:42:00,
2013-05-03 01:48:00,39.8,21.2,30.59,WSW,237,4.0,12.0,47,0.00,,,0.00,Wunderground v.1.15,2013-05-03 07:48:00,
2013-05-03 01:54:00,39.9,20.8,30.59,WSW,243,4.0,12.0,46,0.00,,,0.00,Wunderground v.1.15,2013-05-03 07:54:00,
2013-05-03 02:00:00,39.8,20.7,30.58,WSW,244,3.0,3.0,46,0.00,,,0.00,Wunderground v.1.15,2013-05-03 08:00:00,
2013-05-03 02:06:00,39.5,20.4,30.58,WSW,239,4.0,12.0,46,0.00,,,0.00,Wunderground v.1.15,2013-05-03 08:06:00,
2013-05-03 02:12:00,39.0,20.5,30.58,WSW,240,4.0,12.0,47,0.00,,,0.00,Wunderground v.1.15,2013-05-03 08:12:00,
2013-05-03 02:18:00,38.7,20.2,30.58,WSW,241,3.0,12.0,47,0.00,,,0.00,Wunderground v.1.15,2013-05-03 08:18:00,
2013-05-03 02:24:00,38.8,20.3,30.58,WSW,241,3.0,12.0,47,0.00,,,0.00,Wunderground v.1.15,2013-05-03 08:24:00,
2013-05-03 02:30:00,38.4,20.4,30.57,WSW,247,2.0,12.0,48,0.00,,,0.00,Wunderground v.1.15,2013-05-03 08:30:00,
2013-05-03 02:36:00,38.0,20.0,30.57,West,261,2.0,12.0,48,0.00,,,0.00,Wunderground v.1.15,2013-05-03 08:36:00,
2013-05-03 02:42:00,38.4,19.9,30.57,WSW,257,3.0,12.0,47,0.00,,,0.00,Wunderground v.1.15,2013-05-03 08:42:00,
2013-05-03 02:48:00,38.7,20.2,30.57,WSW,247,3.0,12.0,47,0.00,,,0.00,Wunderground v.1.15,2013-05-03 08:48:00,
2013-05-03 02:54:00,38.6,20.1,30.57,WSW,241,3.0,12.0,47,0.00,,,0.00,Wunderground v.1.15,2013-05-03 08:54:00,
2013-05-03 03:00:00,38.9,19.9,30.56,WSW,238,3.0,12.0,46,0.00,,,0.00,Wunderground v.1.15,2013-05-03 09:00:00,
2013-05-03 03:06:00,39.1,20.0,30.56,WSW,240,4.0,12.0,46,0.00,,,0.00,Wunderground v.1.15,2013-05-03 09:06:00,
2013-05-03 03:12:00,39.2,19.6,30.56,WSW,240,4.0,12.0,45,0.00,,,0.00,Wunderground v.1.15,2013-05-03 09:12:00,
2013-05-03 03:18:00,38.8,19.2,30.56,WSW,244,3.0,12.0,45,0.00,,,0.00,Wunderground v.1.15,2013-05-03 09:18:00,
2013-05-03 03:24:00,38.2,19.2,30.56,West,264,3.0,12.0,46,0.00,,,0.00,Wunderground v.1.15,2013-05-03 09:24:00,
2013-05-03 03:30:00,38.2,19.2,30.56,West,261,4.0,4.0,46,0.00,,,0.00,Wunderground v.1.15,2013-05-03 09:30:00,
2013-05-03 03:36:00,37.9,18.9,30.56,West,262,4.0,12.0,46,0.00,,,0.00,Wunderground v.1.15,2013-05-03 09:36:00,
2013-05-03 03:42:00,37.4,19.0,30.56,WSW,242,4.0,12.0,47,0.00,,,0.00,Wunderground v.1.15,2013-05-03 09:42:00,
2013-05-03 03:48:00,36.8,18.9,30.56,WSW,243,4.0,12.0,48,0.00,,,0.00,Wunderground v.1.15,2013-05-03 09:48:00,
2013-05-03 03:54:00,36.9,19.0,30.56,WSW,245,4.0,12.0,48,0.00,,,0.00,Wunderground v.1.15,2013-05-03 09:54:00,
2013-05-03 04:00:00,36.8,18.9,30.55,WSW,246,3.0,12.0,48,0.00,,,0.00,Wunderground v.1.15,2013-05-03 10:00:00,
2013-05-03 04:06:00,36.8,18.9,30.55,WSW,245,4.0,12.0,48,0.00,,,0.00,Wunderground v.1.15,2013-05-03 10:06:00,
2013-05-03 04:12:00,36.6,18.7,30.55,ENE,76,3.0,12.0,48,0.00,,,0.00,Wunderground v.1.15,2013-05-03 10:12:00,
2013-05-03 04:18:00,34.4,19.0,30.55,ENE,69,2.0,12.0,53,0.00,,,0.00,Wunderground v.1.15,2013-05-03 10:18:00,
2013-05-03 04:24:00,33.8,19.3,30.55,ENE,69,1.0,12.0,55,0.00,,,0.00,Wunderground v.1.15,2013-05-03 10:24:00,
2013-05-03 04:30:00,33.4,19.4,30.55,ENE,69,0.0,12.0,56,0.00,,,0.00,Wunderground v.1.15,2013-05-03 10:30:00,
2013-05-03 04:36:00,33.1,19.9,30.55,ENE,69,0.0,12.0,58,0.00,,,0.00,Wunderground v.1.15,2013-05-03 10:36:00,
2013-05-03 04:42:00,33.2,19.6,30.55,ENE,69,0.0,12.0,57,0.00,,,0.00,Wunderground v.1.15,2013-05-03 10:42:00,
2013-05-03 04:48:00,33.3,19.7,30.55,ENE,69,0.0,12.0,57,0.00,,,0.00,Wunderground v.1.15,2013-05-03 10:48:00,
2013-05-03 04:54:00,33.4,19.4,30.55,ENE,69,0.0,12.0,56,0.00,,,0.00,Wunderground v.1.15,2013-05-03 10:54:00,
2013-05-03 05:00:00,33.5,19.0,30.55,ENE,69,0.0,12.0,55,0.00,,,0.00,Wunderground v.1.15,2013-05-03 11:00:00,
2013-05-03 05:06:00,33.5,19.0,30.55,ENE,69,0.0,12.0,55,0.00,,,0.00,Wunderground v.1.15,2013-05-03 11:06:00,
2013-05-03 05:12:00,33.5,18.6,30.55,ENE,69,0.0,12.0,54,0.00,,,0.00,Wunderground v.1.15,2013-05-03 11:12:00,
2013-05-03 05:18:00,33.3,18.9,30.54,ENE,73,0.0,12.0,55,0.00,,,0.00,Wunderground v.1.15,2013-05-03 11:18:00,
2013-05-03 05:24:00,32.9,18.5,30.54,ENE,73,1.0,12.0,55,0.00,,,0.00,Wunderground v.1.15,2013-05-03 11:24:00,
2013-05-03 05:30:00,32.6,18.6,30.54,ENE,78,1.0,12.0,56,0.00,,,0.00,Wunderground v.1.15,2013-05-03 11:30:00,
2013-05-03 05:36:00,32.6,19.0,30.54,ESE,110,2.0,12.0,57,0.00,,,0.00,Wunderground v.1.15,2013-05-03 11:36:00,
2013-05-03 05:42:00,33.7,19.2,30.54,ESE,110,1.0,12.0,55,0.00,,,0.00,Wunderground v.1.15,2013-05-03 11:42:00,
2013-05-03 05:48:00,33.4,18.5,30.54,ESE,112,1.0,12.0,54,0.00,,,0.00,Wunderground v.1.15,2013-05-03 11:48:00,
2013-05-03 05:54:00,33.3,19.3,30.54,South,173,2.0,12.0,56,0.00,,,0.00,Wunderground v.1.15,2013-05-03 11:54:00,
2013-05-03 06:00:00,33.6,19.1,30.54,SSW,203,2.0,12.0,55,0.00,,,0.00,Wunderground v.1.15,2013-05-03 12:00:00,
2013-05-03 06:06:00,33.8,19.3,30.54,SW,231,3.0,12.0,55,0.00,,,0.00,Wunderground v.1.15,2013-05-03 12:06:00,
2013-05-03 06:12:00,34.2,19.7,30.53,SW,231,2.0,12.0,55,0.00,,,0.00,Wunderground v.1.15,2013-05-03 12:12:00,
2013-05-03 06:18:00,34.6,20.1,30.54,SW,231,2.0,12.0,55,0.00,,,0.00,Wunderground v.1.15,2013-05-03 12:18:00,
2013-05-03 06:24:00,33.8,20.6,30.53,SW,231,1.0,12.0,58,0.00,,,0.00,Wunderground v.1.15,2013-05-03 12:24:00,
2013-05-03 06:30:00,32.9,20.1,30.53,SW,231,0.0,12.0,59,0.00,,,0.00,Wunderground v.1.15,2013-05-03 12:30:00,
2013-05-03 06:36:00,33.2,20.8,30.53,SW,231,0.0,12.0,60,0.00,,,0.00,Wunderground v.1.15,2013-05-03 12:36:00,
2013-05-03 06:42:00,34.0,21.2,30.53,SW,231,0.0,12.0,59,0.00,,,0.00,Wunderground v.1.15,2013-05-03 12:42:00,
2013-05-03 06:48:00,35.3,21.6,30.53,SW,232,0.0,12.0,57,0.00,,,0.00,Wunderground v.1.15,2013-05-03 12:48:00,
2013-05-03 06:54:00,36.6,22.8,30.53,SW,231,0.0,12.0,57,0.00,,,0.00,Wunderground v.1.15,2013-05-03 12:54:00,
2013-05-03 07:00:00,36.9,23.5,30.53,SW,232,0.0,12.0,58,0.00,,,0.00,Wunderground v.1.15,2013-05-03 13:00:00,
2013-05-03 07:06:00,37.2,23.8,30.53,SW,231,0.0,12.0,58,0.00,,,0.00,Wunderground v.1.15,2013-05-03 13:06:00,
2013-05-03 07:12:00,37.6,23.7,30.53,SW,231,0.0,12.0,57,0.00,,,0.00,Wunderground v.1.15,2013-05-03 13:12:00,
2013-05-03 07:18:00,38.0,23.3,30.53,SW,231,0.0,12.0,55,0.00,,,0.00,Wunderground v.1.15,2013-05-03 13:18:00,
2013-05-03 07:24:00,38.9,22.8,30.52,SW,231,0.0,12.0,52,0.00,,,0.00,Wunderground v.1.15,2013-05-03 13:24:00,
2013-05-03 07:30:00,40.2,23.0,30.52,SW,231,0.0,12.0,50,0.00,,,0.00,Wunderground v.1.15,2013-05-03 13:30:00,
2013-05-03 07:36:00,40.8,22.6,30.52,SW,231,0.0,12.0,48,0.00,,,0.00,Wunderground v.1.15,2013-05-03 13:36:00,
2013-05-03 07:42:00,41.1,22.9,30.52,SW,231,0.0,12.0,48,0.00,,,0.00,Wunderground v.1.15,2013-05-03 13:42:00,
2013-05-03 07:48:00,41.1,22.9,30.52,SW,231,0.0,12.0,48,0.00,,,0.00,Wunderground v.1.15,2013-05-03 13:48:00,
2013-05-03 07:54:00,41.4,23.2,30.52,SW,231,1.0,12.0,48,0.00,,,0.00,Wunderground v.1.15,2013-05-03 13:54:00,
2013-05-03 08:00:00,42.0,23.7,30.52,SW,231,0.0,12.0,48,0.00,,,0.00,Wunderground v.1.15,2013-05-03 14:00:00,
2013-05-03 08:06:00,42.6,22.2,30.51,SW,231,0.0,12.0,44,0.00,,,0.00,Wunderground v.1.15,2013-05-03 14:06:00,
2013-05-03 08:12:00,43.2,21.1,30.51,WSW,249,1.0,12.0,41,0.00,,,0.00,Wunderground v.1.15,2013-05-03 14:12:00,
2013-05-03 08:18:00,43.6,22.5,30.51,WSW,249,1.0,12.0,43,0.00,,,0.00,Wunderground v.1.15,2013-05-03 14:18:00,
2013-05-03 08:24:00,44.1,22.4,30.51,NW,310,1.0,12.0,42,0.00,,,0.00,Wunderground v.1.15,2013-05-03 14:24:00,
2013-05-03 08:30:00,44.5,22.8,30.50,NW,310,1.0,1.0,42,0.00,,,0.00,Wunderground v.1.15,2013-05-03 14:30:00,
2013-05-03 08:36:00,45.3,23.5,30.50,NW,310,1.0,12.0,42,0.00,,,0.00,Wunderground v.1.15,2013-05-03 14:36:00,
2013-05-03 08:42:00,46.1,23.1,30.51,NNW,339,1.0,12.0,40,0.00,,,0.00,Wunderground v.1.15,2013-05-03 14:42:00,
2013-05-03 08:48:00,46.6,22.9,30.50,North,354,1.0,12.0,39,0.00,,,0.00,Wunderground v.1.15,2013-05-03 14:48:00,
2013-05-03 08:54:00,47.2,23.5,30.50,NNE,12,1.0,12.0,39,0.00,,,0.00,Wunderground v.1.15,2013-05-03 14:54:00,
2013-05-03 09:00:00,47.7,23.9,30.50,NNE,13,2.0,2.0,39,0.00,,,0.00,Wunderground v.1.15,2013-05-03 15:00:00,
2013-05-03 09:06:00,48.4,25.2,30.50,ENE,73,2.0,12.0,40,0.00,,,0.00,Wunderground v.1.15,2013-05-03 15:06:00,
2013-05-03 09:12:00,48.8,25.5,30.49,ENE,66,2.0,12.0,40,0.00,,,0.00,Wunderground v.1.15,2013-05-03 15:12:00,
2013-05-03 09:18:00,49.2,24.6,30.49,NE,35,2.0,12.0,38,0.00,,,0.00,Wunderground v.1.15,2013-05-03 15:18:00,
2013-05-03 09:24:00,49.7,25.1,30.49,ENE,71,2.0,12.0,38,0.00,,,0.00,Wunderground v.1.15,2013-05-03 15:24:00,
2013-05-03 09:30:00,50.2,24.9,30.49,NE,52,2.0,12.0,37,0.00,,,0.00,Wunderground v.1.15,2013-05-03 15:30:00,
2013-05-03 09:36:00,50.8,24.8,30.49,East,87,2.0,12.0,36,0.00,,,0.00,Wunderground v.1.15,2013-05-03 15:36:00,
2013-05-03 09:42:00,51.1,24.4,30.49,NNE,18,3.0,12.0,35,0.00,,,0.00,Wunderground v.1.15,2013-05-03 15:42:00,
2013-05-03 09:48:00,51.6,24.8,30.49,NE,52,3.0,12.0,35,0.00,,,0.00,Wunderground v.1.15,2013-05-03 15:48:00,
2013-05-03 09:54:00,52.0,25.8,30.48,ENE,78,4.0,12.0,36,0.00,,,0.00,Wunderground v.1.15,2013-05-03 15:54:00,
2013-05-03 10:00:00,52.2,28.0,30.48,NE,44,5.0,5.0,39,0.00,,,0.00,Wunderground v.1.15,2013-05-03 16:00:00,
2013-05-03 10:06:00,52.4,26.9,30.48,NE,54,5.0,12.0,37,0.00,,,0.00,Wunderground v.1.15,2013-05-03 16:06:00,
2013-05-03 10:12:00,52.4,26.2,30.48,NE,54,6.0,12.0,36,0.00,,,0.00,Wunderground v.1.15,2013-05-03 16:12:00,
2013-05-03 10:18:00,51.7,26.2,30.48,NE,50,6.0,12.0,37,0.00,,,0.00,Wunderground v.1.15,2013-05-03 16:18:00,
2013-05-03 10:24:00,51.8,27.0,30.48,East,95,6.0,12.0,38,0.00,,,0.00,Wunderground v.1.15,2013-05-03 16:24:00,
2013-05-03 10:30:00,51.9,27.1,30.48,ENE,74,7.0,7.0,38,0.00,,,0.00,Wunderground v.1.15,2013-05-03 16:30:00,
2013-05-03 10:36:00,52.1,25.3,30.48,East,84,7.0,12.0,35,0.00,,,0.00,Wunderground v.1.15,2013-05-03 16:36:00,
2013-05-03 10:42:00,52.2,26.7,30.48,NE,43,6.0,12.0,37,0.00,,,0.00,Wunderground v.1.15,2013-05-03 16:42:00,
2013-05-03 10:48:00,52.6,26.4,30.48,ENE,70,6.0,12.0,36,0.00,,,0.00,Wunderground v.1.15,2013-05-03 16:48:00,
2013-05-03 10:54:00,52.8,23.7,30.47,ESE,112,6.0,12.0,32,0.00,,,0.00,Wunderground v.1.15,2013-05-03 16:54:00,
2013-05-03 11:00:00,53.2,25.5,30.48,NNE,29,5.0,12.0,34,0.00,,,0.00,Wunderground v.1.15,2013-05-03 17:00:00,
2013-05-03 11:06:00,53.7,25.2,30.47,NE,41,6.0,12.0,33,0.00,,,0.00,Wunderground v.1.15,2013-05-03 17:06:00,
2013-05-03 11:12:00,53.6,25.2,30.47,NE,43,6.0,7.0,33,0.00,,,0.00,Wunderground v.1.15,2013-05-03 17:12:00,
2013-05-03 11:18:00,54.3,25.0,30.47,ENE,64,6.0,12.0,32,0.00,,,0.00,Wunderground v.1.15,2013-05-03 17:18:00,
2013-05-03 11:24:00,54.4,23.6,30.47,East,93,6.0,12.0,30,0.00,,,0.00,Wunderground v.1.15,2013-05-03 17:24:00,
2013-05-03 11:30:00,54.6,21.2,30.47,ENE,66,6.0,6.0,27,0.00,,,0.00,Wunderground v.1.15,2013-05-03 17:30:00,
2013-05-03 11:36:00,54.4,21.1,30.46,East,79,7.0,12.0,27,0.00,,,0.00,Wunderground v.1.15,2013-05-03 17:36:00,
2013-05-03 11:42:00,54.7,20.4,30.46,ENE,68,5.0,12.0,26,0.00,,,0.00,Wunderground v.1.15,2013-05-03 17:42:00,
2013-05-03 11:48:00,55.2,21.8,30.46,ENE,70,6.0,12.0,27,0.00,,,0.00,Wunderground v.1.15,2013-05-03 17:48:00,
2013-05-03 11:54:00,55.1,20.8,30.46,NE,53,6.0,12.0,26,0.00,,,0.00,Wunderground v.1.15,2013-05-03 17:54:00,
2013-05-03 12:00:00,55.3,21.0,30.46,SE,135,4.0,4.0,26,0.00,,,0.00,Wunderground v.1.15,2013-05-03 18:00:00,
2013-05-03 12:06:00,55.5,22.9,30.45,NNE,33,4.0,12.0,28,0.00,,,0.00,Wunderground v.1.15,2013-05-03 18:06:00,
2013-05-03 12:12:00,55.9,25.7,30.45,ENE,66,4.0,12.0,31,0.00,,,0.00,Wunderground v.1.15,2013-05-03 18:12:00,
2013-05-03 12:18:00,56.5,23.7,30.45,NE,52,5.0,12.0,28,0.00,,,0.00,Wunderground v.1.15,2013-05-03 18:18:00,
2013-05-03 17:20:00,58.8,23.9,30.36,ENE,78,8.0,8.0,26,0.00,,,0.00,Wunderground v.1.15,2013-05-03 23:20:00,
2013-05-03 17:26:00,58.7,22.9,30.36,ENE,75,8.0,11.0,25,0.00,,,0.00,Wunderground v.1.15,2013-05-03 23:26:00,
2013-05-03 17:32:00,58.7,23.9,30.36,ESE,106,8.0,15.0,26,0.00,,,0.00,Wunderground v.1.15,2013-05-03 23:32:00,
2013-05-03 17:38:00,58.5,22.8,30.36,ENE,76,7.0,15.0,25,0.00,,,0.00,Wunderground v.1.15,2013-05-03 23:38:00,
2013-05-03 17:44:00,58.3,22.6,30.36,ENE,68,8.0,15.0,25,0.00,,,0.00,Wunderground v.1.15,2013-05-03 23:44:00,
2013-05-03 17:50:00,57.9,23.2,30.36,East,87,8.0,15.0,26,0.00,,,0.00,Wunderground v.1.15,2013-05-03 23:50:00,
2013-05-03 17:56:00,57.8,22.2,30.36,East,100,8.0,15.0,25,0.00,,,0.00,Wunderground v.1.15,2013-05-03 23:56:00,
2013-05-03 18:02:00,57.6,22.9,30.36,ESE,108,8.0,15.0,26,0.00,,,0.00,Wunderground v.1.15,2013-05-04 00:02:00,
2013-05-03 18:08:00,57.5,22.8,30.36,ESE,103,8.0,15.0,26,0.00,,,0.00,Wunderground v.1.15,2013-05-04 00:08:00,
2013-05-03 18:14:00,57.4,21.8,30.36,ESE,115,7.0,15.0,25,0.00,,,0.00,Wunderground v.1.15,2013-05-04 00:14:00,
2013-05-03 18:20:00,57.1,22.5,30.36,ESE,104,8.0,8.0,26,0.00,,,0.00,Wunderground v.1.15,2013-05-04 00:20:00,
2013-05-03 18:26:00,56.8,22.2,30.36,East,89,8.0,15.0,26,0.00,,,0.00,Wunderground v.1.15,2013-05-04 00:26:00,
2013-05-03 18:32:00,56.6,22.1,30.36,East,89,8.0,15.0,26,0.00,,,0.00,Wunderground v.1.15,2013-05-04 00:32:00,
2013-05-03 18:38:00,56.3,22.7,30.36,East,79,7.0,15.0,27,0.00,,,0.00,Wunderground v.1.15,2013-05-04 00:38:00,
2013-05-03 18:44:00,55.8,22.3,30.36,ESE,117,8.0,15.0,27,0.00,,,0.00,Wunderground v.1.15,2013-05-04 00:44:00,
2013-05-03 18:50:00,55.5,22.0,30.37,SE,137,8.0,15.0,27,0.00,,,0.00,Wunderground v.1.15,2013-05-04 00:50:00,
2013-05-03 18:56:00,55.2,21.8,30.37,ESE,110,7.0,15.0,27,0.00,,,0.00,Wunderground v.1.15,2013-05-04 00:56:00,
2013-05-03 19:02:00,55.1,21.7,30.37,ESE,115,6.0,15.0,27,0.00,,,0.00,Wunderground v.1.15,2013-05-04 01:02:00,
2013-05-03 19:08:00,54.7,22.2,30.38,East,98,7.0,15.0,28,0.00,,,0.00,Wunderground v.1.15,2013-05-04 01:08:00,
2013-05-03 19:14:00,54.3,21.8,30.38,ESE,103,7.0,15.0,28,0.00,,,0.00,Wunderground v.1.15,2013-05-04 01:14:00,
2013-05-03 19:20:00,53.9,21.5,30.38,East,96,6.0,15.0,28,0.00,,,0.00,Wunderground v.1.15,2013-05-04 01:20:00,
2013-05-03 19:26:00,53.4,21.9,30.38,ESE,116,6.0,15.0,29,0.00,,,0.00,Wunderground v.1.15,2013-05-04 01:26:00,
2013-05-03 19:32:00,52.7,21.3,30.38,ESE,118,6.0,15.0,29,0.00,,,0.00,Wunderground v.1.15,2013-05-04 01:32:00,
2013-05-03 19:38:00,52.1,21.6,30.38,ESE,107,6.0,15.0,30,0.00,,,0.00,Wunderground v.1.15,2013-05-04 01:38:00,
2013-05-03 19:44:00,51.4,21.7,30.38,ESE,108,5.0,15.0,31,0.00,,,0.00,Wunderground v.1.15,2013-05-04 01:44:00,
2013-05-03 19:50:00,50.5,21.7,30.38,ESE,111,5.0,5.0,32,0.00,,,0.00,Wunderground v.1.15,2013-05-04 01:50:00,
2013-05-03 19:56:00,49.7,21.0,30.39,ESE,102,4.0,15.0,32,0.00,,,0.00,Wunderground v.1.15,2013-05-04 01:56:00,
2013-05-03 20:02:00,49.3,21.4,30.39,SE,129,5.0,5.0,33,0.00,,,0.00,Wunderground v.1.15,2013-05-04 02:02:00,
2013-05-03 20:08:00,49.0,21.1,30.39,ESE,113,5.0,15.0,33,0.00,,,0.00,Wunderground v.1.15,2013-05-04 02:08:00,
2013-05-03 20:14:00,48.7,20.8,30.39,ESE,116,6.0,15.0,33,0.00,,,0.00,Wunderground v.1.15,2013-05-04 02:14:00,
2013-05-03 20:20:00,48.6,20.8,30.40,ESE,110,6.0,6.0,33,0.00,,,0.00,Wunderground v.1.15,2013-05-04 02:20:00,
2013-05-03 20:26:00,48.5,20.7,30.40,SE,135,7.0,15.0,33,0.00,,,0.00,Wunderground v.1.15,2013-05-04 02:26:00,
2013-05-03 20:32:00,48.2,20.4,30.40,SE,126,7.0,15.0,33,0.00,,,0.00,Wunderground v.1.15,2013-05-04 02:32:00,
2013-05-03 20:38:00,48.1,19.6,30.40,SE,139,8.0,15.0,32,0.00,,,0.00,Wunderground v.1.15,2013-05-04 02:38:00,
2013-05-03 20:44:00,47.9,19.4,30.41,East,101,7.0,15.0,32,0.00,,,0.00,Wunderground v.1.15,2013-05-04 02:44:00,
2013-05-03 20:50:00,47.6,19.2,30.41,SE,132,8.0,8.0,32,0.00,,,0.00,Wunderground v.1.15,2013-05-04 02:50:00,
2013-05-03 20:56:00,47.3,19.6,30.41,ESE,118,7.0,15.0,33,0.00,,,0.00,Wunderground v.1.15,2013-05-04 02:56:00,
2013-05-03 21:02:00,47.0,19.3,30.42,ESE,114,8.0,11.0,33,0.00,,,0.00,Wunderground v.1.15,2013-05-04 03:02:00,
2013-05-03 21:08:00,46.8,19.2,30.42,East,89,8.0,15.0,33,0.00,,,0.00,Wunderground v.1.15,2013-05-04 03:08:00,
2013-05-03 21:14:00,46.3,19.4,30.42,East,95,5.0,15.0,34,0.00,,,0.00,Wunderground v.1.15,2013-05-04 03:14:00,
2013-05-03 21:20:00,45.4,19.3,30.42,East,81,3.0,3.0,35,0.00,,,0.00,Wunderground v.1.15,2013-05-04 03:20:00,
2013-05-03 21:26:00,44.2,19.5,30.43,East,79,3.0,15.0,37,0.00,,,0.00,Wunderground v.1.15,2013-05-04 03:26:00,
2013-05-03 21:32:00,43.1,20.4,30.43,East,83,3.0,15.0,40,0.00,,,0.00,Wunderground v.1.15,2013-05-04 03:32:00,
2013-05-03 21:38:00,42.1,20.1,30.43,East,81,2.0,15.0,41,0.00,,,0.00,Wunderground v.1.15,2013-05-04 03:38:00,
2013-05-03 21:44:00,40.7,20.5,30.43,East,81,1.0,15.0,44,0.00,,,0.00,Wunderground v.1.15,2013-05-04 03:44:00,
2013-05-03 21:50:00,39.9,20.8,30.43,East,81,1.0,15.0,46,0.00,,,0.00,Wunderground v.1.15,2013-05-04 03:50:00,
2013-05-03 21:56:00,39.4,20.8,30.44,East,81,1.0,15.0,47,0.00,,,0.00,Wunderground v.1.15,2013-05-04 03:56:00,
2013-05-03 22:02:00,39.5,19.4,30.44,East,82,1.0,2.0,44,0.00,,,0.00,Wunderground v.1.15,2013-05-04 04:02:00,
2013-05-03 22:04:00,39.9,19.2,30.44,East,82,1.0,15.0,43,0.00,,,0.00,Wunderground v.1.15,2013-05-04 04:04:00,
2013-05-03 22:08:00,40.7,19.4,30.44,East,83,1.0,15.0,42,0.00,,,0.00,Wunderground v.1.15,2013-05-04 04:08:00,
2013-05-03 22:12:00,41.0,19.1,30.43,East,83,1.0,15.0,41,0.00,,,0.00,Wunderground v.1.15,2013-05-04 04:12:00,
2013-05-03 22:18:00,40.8,18.9,30.44,East,83,0.0,15.0,41,0.00,,,0.00,Wunderground v.1.15,2013-05-04 04:18:00,
2013-05-03 22:20:00,40.7,18.2,30.44,ESE,110,0.0,15.0,40,0.00,,,0.00,Wunderground v.1.15,2013-05-04 04:20:00,
2013-05-03 22:26:00,41.2,17.5,30.44,ESE,108,1.0,15.0,38,0.00,,,0.00,Wunderground v.1.15,2013-05-04 04:26:00,
2013-05-03 22:32:00,41.1,19.7,30.44,ESE,108,1.0,15.0,42,0.00,,,0.00,Wunderground v.1.15,2013-05-04 04:32:00,
2013-05-03 22:38:00,40.7,17.6,30.44,ESE,114,0.0,15.0,39,0.00,,,0.00,Wunderground v.1.15,2013-05-04 04:38:00,
2013-05-03 22:44:00,41.7,16.0,30.44,East,97,2.0,15.0,35,0.00,,,0.00,Wunderground v.1.15,2013-05-04 04:44:00,
2013-05-03 22:50:00,42.3,15.9,30.44,SSE,150,3.0,3.0,34,0.00,,,0.00,Wunderground v.1.15,2013-05-04 04:50:00,
2013-05-03 22:56:00,41.3,16.3,30.44,ESE,114,3.0,15.0,36,0.00,,,0.00,Wunderground v.1.15,2013-05-04 04:56:00,
2013-05-03 23:02:00,40.8,15.9,30.44,SE,129,4.0,15.0,36,0.00,,,0.00,Wunderground v.1.15,2013-05-04 05:02:00,
2013-05-03 23:08:00,41.0,14.7,30.44,SE,127,5.0,15.0,34,0.00,,,0.00,Wunderground v.1.15,2013-05-04 05:08:00,
2013-05-03 23:14:00,41.1,13.4,30.44,SE,127,5.0,15.0,32,0.00,,,0.00,Wunderground v.1.15,2013-05-04 05:14:00,
2013-05-03 23:20:00,40.4,14.9,30.44,SSE,147,4.0,15.0,35,0.00,,,0.00,Wunderground v.1.15,2013-05-04 05:20:00,
2013-05-03 23:26:00,40.0,13.8,30.44,ESE,122,4.0,15.0,34,0.00,,,0.00,Wunderground v.1.15,2013-05-04 05:26:00,
2013-05-03 23:32:00,40.5,12.9,30.45,SE,135,5.0,15.0,32,0.00,,,0.00,Wunderground v.1.15,2013-05-04 05:32:00,
2013-05-03 23:38:00,40.4,12.8,30.45,SE,139,4.0,15.0,32,0.00,,,0.00,Wunderground v.1.15,2013-05-04 05:38:00,
2013-05-03 23:44:00,39.7,13.6,30.45,SE,139,2.0,15.0,34,0.00,,,0.00,Wunderground v.1.15,2013-05-04 05:44:00,
2013-05-03 23:50:00,38.9,14.2,30.45,SE,139,0.0,15.0,36,0.00,,,0.00,Wunderground v.1.15,2013-05-04 05:50:00,
2013-05-03 23:56:00,38.3,14.3,30.45,SE,139,0.0,15.0,37,0.00,,,0.00,Wunderground v.1.15,2013-05-04 05:56:00,